Time;durP1;ratioP1;P1;durP2;ratioP2;P2;SDS_P1;SDS_P2;PMS_P1;PMS_P2;Temp;Humidity;BMP_temperature;BMP_pressure;BME280_temperature;BME280_humidity;BME280_pressure;Samples;Min_cycle;Max_cycle;Signal;HPM_P1;HPM_P2
2023/08/25 03:02:05;;;;;;;1.38;0.75;;;26.00;59.20;;;;;;5148318;23;45754;-84
2023/08/25 03:04:31;;;;;;;1.27;0.95;;;26.00;59.30;;;;;;4852730;28;47565;-84
2023/08/25 03:06:56;;;;;;;1.98;1.10;;;26.00;59.20;;;;;;4877443;28;45142;-85
2023/08/25 03:09:22;;;;;;;0.90;0.77;;;26.00;59.20;;;;;;4892746;28;45139;-84
2023/08/25 03:11:47;;;;;;;1.50;0.90;;;26.00;59.20;;;;;;4863173;29;46439;-85
2023/08/25 03:14:13;;;;;;;1.17;0.80;;;26.00;59.20;;;;;;4862523;29;48069;-84
2023/08/25 03:16:38;;;;;;;1.90;0.90;;;26.00;59.30;;;;;;4840190;29;45433;-84
2023/08/25 03:19:04;;;;;;;1.10;1.00;;;26.00;59.20;;;;;;4893182;29;45354;-85
2023/08/25 03:21:29;;;;;;;1.75;0.80;;;26.00;59.20;;;;;;4886352;28;45372;-84
2023/08/25 03:23:55;;;;;;;1.23;1.00;;;26.00;59.20;;;;;;4862424;29;45631;-84
2023/08/25 03:26:21;;;;;;;1.10;0.73;;;26.00;59.20;;;;;;4858946;29;45141;-84
2023/08/25 03:28:46;;;;;;;1.85;0.95;;;26.00;59.20;;;;;;4874928;29;45536;-84
2023/08/25 03:31:12;;;;;;;2.20;0.85;;;26.00;59.20;;;;;;4844011;29;45352;-84
2023/08/25 03:33:38;;;;;;;1.95;0.88;;;26.00;59.20;;;;;;4860416;29;47114;-85
2023/08/25 03:36:04;;;;;;;1.40;0.80;;;26.00;59.20;;;;;;4872466;29;45388;-85
2023/08/25 03:38:29;;;;;;;1.83;1.08;;;26.00;59.20;;;;;;4888462;28;45260;-84
2023/08/25 03:40:59;;;;;;;1.33;0.80;;;26.00;59.20;;;;;;4839285;29;45554;-85
2023/08/25 03:43:24;;;;;;;1.70;1.10;;;26.00;59.20;;;;;;4879471;29;45624;-85
2023/08/25 03:45:50;;;;;;;0.98;0.70;;;26.00;59.20;;;;;;4872655;29;45195;-85
2023/08/25 03:48:15;;;;;;;0.93;0.80;;;26.00;59.20;;;;;;4863930;29;45652;-84
2023/08/25 03:50:46;;;;;;;1.60;0.80;;;26.00;59.20;;;;;;4839211;29;46304;-85
2023/08/25 03:53:11;;;;;;;1.77;0.90;;;26.00;59.20;;;;;;4863020;29;47130;-85
2023/08/25 03:55:37;;;;;;;0.88;0.70;;;26.00;59.20;;;;;;4879206;29;45184;-84
2023/08/25 03:58:03;;;;;;;1.33;1.05;;;26.00;59.20;;;;;;4861381;29;45254;-85
2023/08/25 04:00:28;;;;;;;1.20;0.82;;;26.00;59.20;;;;;;4856147;28;45352;-85
2023/08/25 04:02:54;;;;;;;1.23;1.00;;;26.00;59.20;;;;;;4893651;28;47056;-85
2023/08/25 04:05:20;;;;;;;1.25;1.00;;;26.00;59.20;;;;;;4846375;29;45276;-85
2023/08/25 04:07:45;;;;;;;1.85;0.85;;;26.00;59.20;;;;;;4874407;29;45530;-85
2023/08/25 04:10:11;;;;;;;0.68;0.68;;;26.00;59.20;;;;;;4860798;29;45381;-85
2023/08/25 04:12:37;;;;;;;2.38;1.05;;;26.00;59.20;;;;;;4871976;29;48260;-86
2023/08/25 04:15:03;;;;;;;1.05;0.90;;;26.00;59.20;;;;;;4876911;29;45071;-85
2023/08/25 04:17:30;;;;;;;1.13;0.85;;;26.00;59.20;;;;;;4843517;29;45239;-85
2023/08/25 04:19:56;;;;;;;1.23;0.80;;;26.00;59.20;;;;;;4892114;28;44902;-85
2023/08/25 04:22:21;;;;;;;1.05;0.75;;;26.00;59.10;;;;;;4888559;28;46412;-84
2023/08/25 04:24:47;;;;;;;1.15;0.75;;;26.00;59.10;;;;;;4861933;29;45916;-85
2023/08/25 04:27:12;;;;;;;2.17;1.10;;;25.90;59.10;;;;;;4844470;29;46054;-84
2023/08/25 04:29:38;;;;;;;1.45;1.02;;;26.00;59.10;;;;;;4846803;29;45661;-85
2023/08/25 04:32:03;;;;;;;2.13;1.00;;;25.90;59.10;;;;;;4879366;28;47366;-84
2023/08/25 04:34:29;;;;;;;1.08;0.57;;;26.00;59.10;;;;;;4875845;29;45521;-85
2023/08/25 04:36:55;;;;;;;0.95;0.70;;;26.00;59.10;;;;;;4842353;29;45584;-84
2023/08/25 04:39:20;;;;;;;1.77;1.02;;;26.00;59.10;;;;;;4850740;29;45042;-84
2023/08/25 04:41:46;;;;;;;1.42;0.98;;;26.00;59.10;;;;;;4886272;28;45511;-85
2023/08/25 04:44:11;;;;;;;1.42;0.90;;;26.00;59.10;;;;;;4850742;29;45475;-85
2023/08/25 04:46:37;;;;;;;1.35;0.80;;;26.00;59.10;;;;;;4864073;29;45547;-85
2023/08/25 04:49:02;;;;;;;1.25;0.73;;;26.00;59.10;;;;;;4883553;29;45227;-86
2023/08/25 04:51:28;;;;;;;2.53;1.20;;;26.00;59.10;;;;;;4871356;29;47398;-86
2023/08/25 04:53:53;;;;;;;2.55;0.88;;;25.90;59.10;;;;;;4852388;29;45468;-85
2023/08/25 04:56:19;;;;;;;1.15;0.77;;;25.90;59.10;;;;;;4875783;29;45081;-85
2023/08/25 04:58:44;;;;;;;1.35;0.90;;;25.90;59.10;;;;;;4862389;29;45226;-86
2023/08/25 05:01:10;;;;;;;1.42;0.93;;;25.90;59.10;;;;;;4851268;29;46968;-86
2023/08/25 05:03:36;;;;;;;2.05;1.00;;;25.90;59.10;;;;;;4849575;29;44603;-85
2023/08/25 05:06:01;;;;;;;1.30;0.90;;;26.00;59.20;;;;;;4886566;28;45100;-86
2023/08/25 05:08:27;;;;;;;1.58;0.75;;;25.90;59.10;;;;;;4848859;29;45681;-84
2023/08/25 05:10:52;;;;;;;1.30;0.90;;;25.90;58.60;;;;;;4873120;28;47039;-84
2023/08/25 05:13:18;;;;;;;0.93;0.60;;;26.00;59.20;;;;;;4868070;28;45118;-84
2023/08/25 05:15:43;;;;;;;1.58;1.00;;;25.90;59.10;;;;;;4859732;29;45205;-84
2023/08/25 05:18:09;;;;;;;1.42;0.93;;;25.90;59.10;;;;;;4885448;28;45995;-84
2023/08/25 05:20:35;;;;;;;1.05;0.90;;;25.90;59.10;;;;;;4853317;29;45580;-85
2023/08/25 05:23:00;;;;;;;2.35;0.90;;;25.90;59.10;;;;;;4838773;28;45589;-84
2023/08/25 05:25:26;;;;;;;1.35;0.93;;;25.90;59.10;;;;;;4863652;29;45499;-86
2023/08/25 05:27:52;;;;;;;1.08;0.80;;;25.90;59.30;;;;;;4863481;29;45140;-84
2023/08/25 05:30:17;;;;;;;0.82;0.50;;;25.90;59.10;;;;;;4873675;28;47565;-84
2023/08/25 05:32:43;;;;;;;1.58;0.90;;;26.00;59.20;;;;;;4840940;28;44980;-85
2023/08/25 05:35:09;;;;;;;2.85;0.90;;;25.90;59.10;;;;;;4862113;28;45988;-86
2023/08/25 05:37:34;;;;;;;2.05;1.05;;;25.90;59.10;;;;;;4875825;29;45488;-83
2023/08/25 05:40:00;;;;;;;1.50;0.93;;;25.90;59.70;;;;;;4850813;29;45555;-86
2023/08/25 05:42:27;;;;;;;1.15;0.70;;;25.90;59.10;;;;;;4889249;28;45457;-85
2023/08/25 05:44:52;;;;;;;2.08;0.90;;;25.90;59.10;;;;;;4865489;28;45595;-84
2023/08/25 05:47:18;;;;;;;2.40;0.90;;;25.90;59.10;;;;;;4869931;29;45479;-84
2023/08/25 05:49:44;;;;;;;0.82;0.63;;;25.90;59.10;;;;;;4841615;29;46963;-85
2023/08/25 05:52:09;;;;;;;1.13;0.80;;;25.90;59.10;;;;;;4848126;29;45124;-84
2023/08/25 05:54:35;;;;;;;3.35;0.90;;;25.90;59.10;;;;;;4883460;28;45318;-86
2023/08/25 05:57:00;;;;;;;2.88;0.70;;;25.90;59.10;;;;;;4862217;28;45387;-84
2023/08/25 05:59:26;;;;;;;2.00;0.90;;;25.90;59.10;;;;;;4827628;29;47138;-84
2023/08/25 06:01:51;;;;;;;2.30;0.85;;;25.90;59.10;;;;;;4848177;29;45362;-84
2023/08/25 06:04:17;;;;;;;1.15;0.63;;;25.90;59.10;;;;;;4854265;29;45605;-83
2023/08/25 06:06:44;;;;;;;2.17;0.77;;;25.90;59.10;;;;;;4838443;29;45566;-84
2023/08/25 06:09:09;;;;;;;1.30;0.80;;;25.90;59.10;;;;;;4826547;29;45544;-85
2023/08/25 06:11:35;;;;;;;1.83;1.08;;;25.90;59.10;;;;;;4855882;29;45380;-85
2023/08/25 06:14:01;;;;;;;1.63;0.82;;;25.90;59.10;;;;;;4863382;29;45647;-84
2023/08/25 06:16:27;;;;;;;1.70;0.80;;;25.90;59.10;;;;;;4868827;29;45469;-85
2023/08/25 06:18:52;;;;;;;1.00;0.90;;;25.90;59.10;;;;;;4866449;29;45337;-84
2023/08/25 06:21:18;;;;;;;0.85;0.73;;;25.90;59.10;;;;;;4804463;29;45750;-85
2023/08/25 06:23:44;;;;;;;1.05;0.80;;;25.90;59.10;;;;;;4852934;29;45198;-84
2023/08/25 06:26:09;;;;;;;1.13;0.98;;;25.90;59.10;;;;;;4867781;29;45740;-85
2023/08/25 06:28:35;;;;;;;0.98;0.80;;;25.90;59.10;;;;;;4870714;29;45605;-86
2023/08/25 06:31:01;;;;;;;1.13;0.70;;;25.90;59.10;;;;;;4815176;29;45412;-85
2023/08/25 06:33:29;;;;;;;3.15;1.00;;;25.90;59.10;;;;;;4857812;29;44814;-85
2023/08/25 06:35:56;;;;;;;1.27;0.90;;;25.90;59.10;;;;;;4855006;29;45545;-85
2023/08/25 06:38:22;;;;;;;1.20;0.95;;;25.90;59.10;;;;;;4843643;29;45404;-86
2023/08/25 06:40:48;;;;;;;3.25;0.80;;;25.90;59.10;;;;;;4856156;29;45631;-84
2023/08/25 06:43:13;;;;;;;1.25;0.98;;;25.90;59.10;;;;;;4840685;29;45214;-86
2023/08/25 06:45:39;;;;;;;1.77;0.93;;;25.90;59.10;;;;;;4839614;29;45443;-86
2023/08/25 06:48:05;;;;;;;2.58;0.93;;;25.90;59.10;;;;;;4874737;29;46661;-84
2023/08/25 06:50:31;;;;;;;1.20;0.90;;;25.90;59.10;;;;;;4837879;29;45323;-84
2023/08/25 06:52:56;;;;;;;1.15;0.80;;;25.90;59.10;;;;;;4806845;29;45039;-85
2023/08/25 06:55:22;;;;;;;0.77;0.77;;;25.90;59.10;;;;;;4843768;29;45741;-85
2023/08/25 06:57:48;;;;;;;0.80;0.80;;;25.90;59.10;;;;;;4843458;29;45329;-84
2023/08/25 07:00:14;;;;;;;2.00;0.90;;;25.90;59.10;;;;;;4855955;29;45314;-85
2023/08/25 07:02:41;;;;;;;1.55;1.00;;;25.90;59.10;;;;;;4848705;29;45251;-84
2023/08/25 07:05:07;;;;;;;1.02;0.70;;;25.90;59.10;;;;;;4874139;29;45365;-86
2023/08/25 07:07:33;;;;;;;2.15;1.23;;;25.90;59.10;;;;;;4872762;29;46353;-87
2023/08/25 07:09:59;;;;;;;0.85;0.75;;;25.90;59.70;;;;;;4859004;29;45512;-85
2023/08/25 07:12:24;;;;;;;1.10;0.70;;;25.90;59.10;;;;;;4850762;29;45256;-85
2023/08/25 07:14:51;;;;;;;1.92;0.82;;;25.90;59.10;;;;;;4854182;29;45013;-84
2023/08/25 07:17:17;;;;;;;1.67;0.70;;;25.90;59.10;;;;;;4867460;29;46216;-84
2023/08/25 07:19:43;;;;;;;1.48;0.93;;;25.90;59.10;;;;;;4853650;29;45235;-85
2023/08/25 07:22:08;;;;;;;1.48;0.77;;;25.90;59.10;;;;;;4854580;29;45216;-85
2023/08/25 07:24:34;;;;;;;1.08;0.77;;;25.90;59.10;;;;;;4840866;29;46231;-85
2023/08/25 07:27:00;;;;;;;1.00;0.90;;;25.90;59.20;;;;;;4825050;29;46909;-85
2023/08/25 07:29:25;;;;;;;1.02;0.88;;;25.90;59.20;;;;;;4856755;29;46135;-84
2023/08/25 07:31:52;;;;;;;2.15;1.00;;;25.90;59.10;;;;;;4856112;29;45518;-84
2023/08/25 07:34:17;;;;;;;1.92;1.02;;;25.90;59.10;;;;;;4870338;29;45923;-84
2023/08/25 07:36:43;;;;;;;1.63;0.95;;;25.90;59.10;;;;;;4824755;29;47382;-84
2023/08/25 07:39:08;;;;;;;2.05;0.77;;;25.90;59.10;;;;;;4853769;29;45243;-85
2023/08/25 07:41:34;;;;;;;2.00;1.02;;;25.90;59.20;;;;;;4851185;29;45333;-85
2023/08/25 07:44:00;;;;;;;1.17;0.98;;;25.90;59.20;;;;;;4867956;29;45551;-85
2023/08/25 07:46:27;;;;;;;1.13;0.88;;;25.90;59.10;;;;;;4842023;29;45315;-86
2023/08/25 07:48:53;;;;;;;1.20;0.80;;;25.90;59.20;;;;;;4873508;29;45358;-85
2023/08/25 07:51:18;;;;;;;1.98;0.90;;;25.80;59.10;;;;;;4841095;29;45268;-85
2023/08/25 07:53:44;;;;;;;2.33;0.90;;;25.90;59.20;;;;;;4851772;29;44839;-85
2023/08/25 07:56:09;;;;;;;1.20;0.80;;;25.90;59.20;;;;;;4854557;29;46627;-85
2023/08/25 07:58:35;;;;;;;1.95;0.85;;;25.90;59.20;;;;;;4832627;29;45478;-85
2023/08/25 08:01:02;;;;;;;1.40;0.90;;;25.90;59.20;;;;;;4818609;29;45069;-84
2023/08/25 08:03:28;;;;;;;1.55;1.00;;;25.80;59.20;;;;;;4852653;29;45089;-85
2023/08/25 08:05:54;;;;;;;0.85;0.80;;;25.90;59.20;;;;;;4853040;29;46867;-84
2023/08/25 08:08:19;;;;;;;0.90;0.90;;;25.90;59.20;;;;;;4855885;29;45490;-83
2023/08/25 08:10:45;;;;;;;1.58;1.20;;;25.90;59.20;;;;;;4845078;29;45244;-84
2023/08/25 08:13:10;;;;;;;1.48;0.80;;;25.90;59.20;;;;;;4840665;29;45330;-83
2023/08/25 08:15:36;;;;;;;1.83;1.05;;;25.90;59.20;;;;;;4845718;29;47623;-84
2023/08/25 08:18:01;;;;;;;1.55;0.90;;;25.90;59.20;;;;;;4811646;29;44869;-84
2023/08/25 08:20:27;;;;;;;1.98;0.90;;;25.90;59.20;;;;;;4865258;29;45272;-86
2023/08/25 08:22:53;;;;;;;1.25;0.90;;;25.80;59.10;;;;;;4857203;29;45723;-83
2023/08/25 08:25:19;;;;;;;0.60;0.60;;;25.90;59.20;;;;;;4855939;29;47376;-85
2023/08/25 08:27:46;;;;;;;1.02;0.80;;;25.90;59.20;;;;;;4828400;29;45595;-84
2023/08/25 08:30:16;;;;;;;1.13;0.80;;;25.80;59.10;;;;;;4851607;29;44995;-84
2023/08/25 08:32:41;;;;;;;3.13;1.27;;;25.90;59.20;;;;;;4854227;29;45393;-83
2023/08/25 08:35:08;;;;;;;3.40;0.93;;;25.80;59.10;;;;;;4838402;29;47093;-84
2023/08/25 08:37:36;;;;;;;1.63;0.90;;;25.90;59.20;;;;;;4825751;29;45297;-84
2023/08/25 08:40:06;;;;;;;1.48;1.13;;;25.80;59.10;;;;;;4871309;29;44967;-85
2023/08/25 08:42:36;;;;;;;0.80;0.80;;;25.90;59.20;;;;;;4838792;29;45224;-84
2023/08/25 08:45:05;;;;;;;1.23;0.88;;;25.80;59.10;;;;;;4856011;29;47111;-83
2023/08/25 08:47:32;;;;;;;2.25;1.27;;;25.90;59.30;;;;;;4835372;29;45388;-85
2023/08/25 08:49:58;;;;;;;1.17;0.90;;;25.90;59.20;;;;;;4844374;29;45340;-84
2023/08/25 08:52:23;;;;;;;0.98;0.90;;;25.90;59.20;;;;;;4857567;29;45335;-83
2023/08/25 08:54:49;;;;;;;2.28;0.90;;;25.90;59.20;;;;;;4868721;29;45376;-84
2023/08/25 08:57:15;;;;;;;1.23;0.88;;;25.80;59.20;;;;;;4870760;29;45227;-84
2023/08/25 08:59:42;;;;;;;1.42;1.05;;;25.90;59.20;;;;;;4839768;29;45068;-84
2023/08/25 09:02:08;;;;;;;1.35;1.00;;;25.90;59.20;;;;;;4829951;29;45263;-84
2023/08/25 09:04:33;;;;;;;2.20;0.88;;;25.80;59.20;;;;;;4833683;29;47192;-83
2023/08/25 09:06:59;;;;;;;1.48;0.95;;;25.80;59.20;;;;;;4878492;29;45378;-83
2023/08/25 09:09:25;;;;;;;1.30;1.08;;;25.90;59.20;;;;;;4878472;29;45404;-83
2023/08/25 09:11:50;;;;;;;1.00;0.90;;;25.90;59.20;;;;;;4838888;29;45128;-84
2023/08/25 09:14:23;;;;;;;1.15;0.93;;;25.80;59.20;;;;;;4858448;29;46987;-84
2023/08/25 09:16:49;;;;;;;2.85;1.00;;;25.80;59.10;;;;;;4850632;29;45544;-83
2023/08/25 09:19:16;;;;;;;2.05;0.95;;;25.80;59.40;;;;;;4859217;29;45481;-83
2023/08/25 09:21:44;;;;;;;1.15;0.90;;;25.80;59.20;;;;;;4836773;29;45143;-83
2023/08/25 09:24:10;;;;;;;1.05;0.88;;;25.80;59.20;;;;;;4871980;29;45564;-84
2023/08/25 09:26:37;;;;;;;2.13;0.90;;;25.90;59.20;;;;;;4856858;29;45839;-84
2023/08/25 09:29:03;;;;;;;2.05;1.13;;;25.80;59.20;;;;;;4847250;29;45367;-84
2023/08/25 09:31:29;;;;;;;1.25;1.02;;;25.80;59.20;;;;;;4852146;29;45113;-84
2023/08/25 09:33:59;;;;;;;3.03;0.90;;;25.80;59.20;;;;;;4878596;29;46960;-84
2023/08/25 09:36:25;;;;;;;1.35;0.95;;;25.90;59.20;;;;;;4842608;29;45330;-84
2023/08/25 09:38:52;;;;;;;1.60;0.98;;;25.80;59.20;;;;;;4846339;29;45232;-83
2023/08/25 09:41:30;;;;;;;1.17;0.90;;;25.80;59.20;;;;;;4855479;29;45627;-84
2023/08/25 09:43:59;;;;;;;1.25;0.80;;;25.90;59.20;;;;;;4863727;29;46634;-83
2023/08/25 09:46:29;;;;;;;1.05;0.82;;;25.90;59.30;;;;;;4856078;29;45171;-85
2023/08/25 09:49:01;;;;;;;0.80;0.80;;;25.80;59.20;;;;;;4871651;29;45532;-83
2023/08/25 09:51:35;;;;;;;1.17;0.98;;;25.90;59.30;;;;;;4865166;29;45219;-83
2023/08/25 09:54:12;;;;;;;2.13;1.13;;;25.80;59.30;;;;;;4834769;29;47933;-85
2023/08/25 09:56:39;;;;;;;1.50;0.98;;;25.80;59.30;;;;;;4839476;29;45653;-84
2023/08/25 09:59:05;;;;;;;1.70;0.85;;;25.80;59.30;;;;;;4833153;29;45220;-85
2023/08/25 10:01:32;;;;;;;1.38;0.75;;;25.80;59.30;;;;;;4848537;29;45255;-85
2023/08/25 10:03:58;;;;;;;1.45;0.80;;;25.80;59.30;;;;;;4854947;29;46871;-84
2023/08/25 10:06:24;;;;;;;1.63;1.00;;;25.80;59.30;;;;;;4836186;29;45006;-83
2023/08/25 10:08:49;;;;;;;1.75;0.90;;;25.80;59.30;;;;;;4859494;28;45282;-85
2023/08/25 10:11:16;;;;;;;2.05;1.00;;;25.80;59.30;;;;;;4834094;28;45304;-84
2023/08/25 10:13:42;;;;;;;1.50;0.82;;;25.80;59.30;;;;;;4874736;29;46325;-83
2023/08/25 10:16:08;;;;;;;2.92;1.15;;;25.80;59.30;;;;;;4854301;29;45207;-84
2023/08/25 10:18:37;;;;;;;0.98;0.85;;;25.80;59.30;;;;;;4873843;28;45947;-84
2023/08/25 10:21:02;;;;;;;3.47;1.15;;;25.80;59.30;;;;;;4835207;29;45306;-83
2023/08/25 10:23:28;;;;;;;1.95;1.00;;;25.80;59.30;;;;;;4857905;29;45563;-83
2023/08/25 10:25:53;;;;;;;1.25;1.02;;;25.80;59.30;;;;;;4878948;29;45185;-83
2023/08/25 10:28:19;;;;;;;1.73;1.10;;;25.80;59.30;;;;;;4893174;28;45287;-84
2023/08/25 10:30:45;;;;;;;1.50;1.00;;;25.80;59.30;;;;;;4862069;28;45281;-84
2023/08/25 10:33:11;;;;;;;1.77;1.00;;;25.80;59.30;;;;;;4877586;29;47151;-84
2023/08/25 10:35:41;;;;;;;2.15;1.23;;;25.80;59.30;;;;;;4855222;29;45088;-83
2023/08/25 10:38:19;;;;;;;2.50;1.00;;;25.80;59.30;;;;;;4880708;29;45125;-84
2023/08/25 10:40:52;;;;;;;1.30;0.85;;;25.80;59.30;;;;;;4887147;28;45613;-83
2023/08/25 10:43:30;;;;;;;1.65;0.98;;;25.80;59.30;;;;;;4855679;29;45451;-83
2023/08/25 10:45:55;;;;;;;1.27;0.90;;;25.80;59.30;;;;;;4876161;29;45413;-83
2023/08/25 10:48:21;;;;;;;1.65;0.90;;;25.80;59.30;;;;;;4875987;29;45269;-83
2023/08/25 10:50:47;;;;;;;2.38;1.00;;;25.80;59.30;;;;;;4876223;28;45253;-84
2023/08/25 10:53:38;;;;;;;1.00;0.90;;;25.80;59.30;;;;;;4884935;29;45449;-83
2023/08/25 10:56:16;;;;;;;1.25;0.93;;;25.80;59.40;;;;;;4887853;28;44604;-84
2023/08/25 10:58:41;;;;;;;0.80;0.80;;;25.80;59.30;;;;;;4867755;28;45199;-84
2023/08/25 11:01:07;;;;;;;4.07;1.08;;;25.80;60.00;;;;;;4841340;29;45324;-83
2023/08/25 11:04:01;;;;;;;1.58;1.02;;;25.80;59.40;;;;;;4865553;29;46873;-84
2023/08/25 11:06:43;;;;;;;0.80;0.80;;;25.80;59.40;;;;;;4845364;29;44832;-84
2023/08/25 11:09:35;;;;;;;1.23;1.00;;;25.80;59.40;;;;;;4845148;29;45243;-83
2023/08/25 11:12:08;;;;;;;1.17;1.05;;;25.70;59.30;;;;;;4864918;29;45706;-84
2023/08/25 11:14:35;;;;;;;0.93;0.70;;;25.80;59.40;;;;;;4858626;29;47191;-83
2023/08/25 11:17:02;;;;;;;1.48;1.13;;;25.80;59.40;;;;;;4887650;28;45309;-84
2023/08/25 11:19:27;;;;;;;2.58;0.90;;;25.80;59.40;;;;;;4867671;29;45229;-84
2023/08/25 11:21:58;;;;;;;1.40;0.80;;;25.80;59.40;;;;;;4861820;29;45616;-84
2023/08/25 11:24:23;;;;;;;1.65;1.05;;;25.80;59.40;;;;;;4838745;29;47791;-84
2023/08/25 11:26:49;;;;;;;2.95;1.10;;;25.70;59.30;;;;;;4860926;29;45414;-83
2023/08/25 11:29:15;;;;;;;1.63;1.20;;;25.80;59.40;;;;;;4879200;29;45288;-83
2023/08/25 11:31:42;;;;;;;1.33;0.65;;;25.80;59.40;;;;;;4886300;28;45279;-84
2023/08/25 11:34:08;;;;;;;0.98;0.90;;;25.80;59.40;;;;;;4835238;29;47238;-84
2023/08/25 11:36:33;;;;;;;1.42;0.88;;;25.80;59.40;;;;;;4863496;29;45290;-84
2023/08/25 11:38:59;;;;;;;1.73;1.00;;;25.80;59.40;;;;;;4883652;29;44797;-84
2023/08/25 11:41:24;;;;;;;1.70;0.95;;;25.80;59.40;;;;;;4860761;28;45564;-83
2023/08/25 11:43:50;;;;;;;1.15;0.90;;;25.80;59.40;;;;;;4872701;28;45589;-84
2023/08/25 11:46:16;;;;;;;1.33;0.80;;;25.80;59.40;;;;;;4839193;29;45262;-84
2023/08/25 11:48:41;;;;;;;3.80;1.23;;;25.80;59.40;;;;;;4845108;29;45217;-84
2023/08/25 11:51:14;;;;;;;1.55;0.82;;;25.80;59.40;;;;;;4866968;29;45953;-85
2023/08/25 11:53:41;;;;;;;1.00;0.90;;;25.80;59.40;;;;;;4869886;29;45739;-85
2023/08/25 11:56:07;;;;;;;2.28;1.00;;;25.80;59.40;;;;;;4879698;29;45374;-83
2023/08/25 11:58:33;;;;;;;1.50;0.93;;;25.80;59.40;;;;;;4867040;29;45243;-83
2023/08/25 12:01:09;;;;;;;0.90;0.80;;;25.80;59.40;;;;;;4851817;29;45138;-86
2023/08/25 12:03:38;;;;;;;1.50;0.90;;;25.80;59.40;;;;;;4860709;29;46024;-84
2023/08/25 12:06:07;;;;;;;2.08;1.00;;;25.80;59.40;;;;;;4831775;29;45290;-84
2023/08/25 12:08:33;;;;;;;1.02;0.93;;;25.80;59.40;;;;;;4884417;29;45392;-84
2023/08/25 12:10:59;;;;;;;1.13;0.95;;;25.80;59.40;;;;;;4856723;29;45510;-85
2023/08/25 12:13:30;;;;;;;1.13;0.85;;;25.80;59.50;;;;;;4867096;29;47252;-83
2023/08/25 12:15:56;;;;;;;1.05;0.80;;;25.80;59.50;;;;;;4875779;29;45456;-85
2023/08/25 12:18:22;;;;;;;0.90;0.70;;;25.80;59.50;;;;;;4860917;29;45244;-85
2023/08/25 12:20:48;;;;;;;0.93;0.80;;;25.80;59.50;;;;;;4863248;29;45168;-84
2023/08/25 12:23:13;;;;;;;0.95;0.85;;;25.80;59.50;;;;;;4859939;28;46043;-83
2023/08/25 12:25:42;;;;;;;1.10;0.90;;;25.80;59.50;;;;;;4871516;29;45198;-83
2023/08/25 12:28:08;;;;;;;0.95;0.82;;;25.80;59.50;;;;;;4880618;29;45564;-83
2023/08/25 12:30:33;;;;;;;0.95;0.90;;;25.80;59.50;;;;;;4888099;29;45118;-84
2023/08/25 12:32:59;;;;;;;1.00;0.90;;;25.80;59.50;;;;;;4885531;28;46037;-84
2023/08/25 12:35:24;;;;;;;0.95;0.85;;;25.80;59.50;;;;;;4860409;29;45179;-84
2023/08/25 12:37:51;;;;;;;1.08;0.90;;;25.80;59.50;;;;;;4893574;28;46244;-83
2023/08/25 12:40:20;;;;;;;0.85;0.80;;;25.80;59.50;;;;;;4831609;28;45539;-83
2023/08/25 12:42:48;;;;;;;1.67;0.90;;;25.80;59.50;;;;;;4892822;28;45374;-84
2023/08/25 12:45:14;;;;;;;0.90;0.70;;;25.80;59.50;;;;;;4864553;29;45629;-86
2023/08/25 12:47:40;;;;;;;1.15;1.05;;;25.80;59.50;;;;;;4872948;29;45283;-84
2023/08/25 12:50:06;;;;;;;1.08;0.93;;;25.80;59.50;;;;;;4872970;28;45469;-85
2023/08/25 12:52:33;;;;;;;1.85;1.05;;;25.80;59.50;;;;;;4877774;29;45314;-84
2023/08/25 12:54:58;;;;;;;0.95;0.88;;;25.80;59.50;;;;;;4846608;29;44915;-83
2023/08/25 12:57:24;;;;;;;1.08;0.90;;;25.80;59.50;;;;;;4876409;29;45397;-84
2023/08/25 12:59:50;;;;;;;1.23;0.90;;;25.80;59.50;;;;;;4865485;29;45526;-84
2023/08/25 13:02:15;;;;;;;1.05;0.80;;;25.80;59.50;;;;;;4852116;29;47038;-84
2023/08/25 13:04:41;;;;;;;1.15;0.90;;;25.80;59.50;;;;;;4893788;28;45131;-84
2023/08/25 13:07:06;;;;;;;1.00;0.80;;;25.80;59.50;;;;;;4859753;29;45683;-85
2023/08/25 13:09:32;;;;;;;1.02;0.82;;;25.80;59.50;;;;;;4849435;29;46078;-84
2023/08/25 13:11:57;;;;;;;0.93;0.80;;;25.80;59.50;;;;;;4841810;29;47026;-84
2023/08/25 13:14:24;;;;;;;1.17;0.98;;;25.80;59.50;;;;;;4863894;29;46025;-85
2023/08/25 13:16:50;;;;;;;1.35;0.98;;;25.80;59.50;;;;;;4826562;29;45289;-84
2023/08/25 13:19:15;;;;;;;2.50;0.95;;;25.80;59.50;;;;;;4868267;29;45376;-85
2023/08/25 13:21:41;;;;;;;0.80;0.80;;;25.80;59.50;;;;;;4887717;29;47033;-84
2023/08/25 13:24:07;;;;;;;1.50;1.00;;;25.80;59.50;;;;;;4842535;29;46048;-86
2023/08/25 13:26:32;;;;;;;1.77;0.98;;;25.80;59.50;;;;;;4863843;29;45374;-84
2023/08/25 13:28:58;;;;;;;1.40;0.88;;;25.80;59.50;;;;;;4865860;29;45343;-84
2023/08/25 13:31:23;;;;;;;1.75;0.93;;;25.80;59.50;;;;;;4877493;29;46202;-84
2023/08/25 13:33:49;;;;;;;2.08;1.10;;;25.80;59.50;;;;;;4868769;29;45577;-84
2023/08/25 13:36:16;;;;;;;1.17;0.90;;;25.80;59.50;;;;;;4864934;29;45354;-84
2023/08/25 13:38:42;;;;;;;1.90;1.27;;;25.80;59.50;;;;;;4893101;28;45416;-85
2023/08/25 13:41:07;;;;;;;2.03;1.10;;;25.80;59.50;;;;;;4857891;28;46227;-86
2023/08/25 13:43:33;;;;;;;1.88;1.15;;;25.80;59.50;;;;;;4882928;29;45160;-84
2023/08/25 13:45:59;;;;;;;1.83;1.10;;;25.80;59.50;;;;;;4860301;28;45707;-87
2023/08/25 13:48:24;;;;;;;1.50;1.00;;;25.80;59.50;;;;;;4863944;29;45485;-84
2023/08/25 13:50:50;;;;;;;1.50;0.85;;;25.80;59.50;;;;;;4892136;28;45199;-84
2023/08/25 13:53:15;;;;;;;1.08;0.95;;;25.80;59.50;;;;;;4876773;29;45326;-84
2023/08/25 13:55:41;;;;;;;0.88;0.80;;;25.80;59.50;;;;;;4877163;29;45238;-84
2023/08/25 13:58:06;;;;;;;1.20;1.08;;;25.80;59.50;;;;;;4877119;29;45275;-84
2023/08/25 14:00:32;;;;;;;2.10;0.95;;;25.80;59.50;;;;;;4858212;28;45669;-84
2023/08/25 14:02:57;;;;;;;2.17;1.10;;;25.80;59.50;;;;;;4858399;29;45285;-84
2023/08/25 14:05:23;;;;;;;1.80;0.98;;;25.80;59.60;;;;;;4870192;29;45326;-85
2023/08/25 14:07:50;;;;;;;1.52;1.00;;;25.80;59.60;;;;;;4850412;29;46164;-84
2023/08/25 14:10:16;;;;;;;0.82;0.80;;;25.80;59.60;;;;;;4846491;29;47191;-84
2023/08/25 14:12:41;;;;;;;2.03;0.95;;;25.80;59.60;;;;;;4883718;29;45494;-86
2023/08/25 14:15:07;;;;;;;0.70;0.70;;;25.80;59.60;;;;;;4843997;29;44975;-85
2023/08/25 14:17:33;;;;;;;1.50;0.80;;;25.80;59.60;;;;;;4842382;29;44750;-84
2023/08/25 14:19:58;;;;;;;1.15;0.90;;;25.80;59.60;;;;;;4881714;29;45909;-84
2023/08/25 14:22:24;;;;;;;0.80;0.80;;;25.80;59.60;;;;;;4827153;29;45406;-84
2023/08/25 14:24:50;;;;;;;1.17;0.90;;;25.80;59.60;;;;;;4864940;29;45406;-84
2023/08/25 14:27:15;;;;;;;1.13;0.70;;;25.80;59.60;;;;;;4832545;28;45148;-86
2023/08/25 14:29:41;;;;;;;1.20;0.90;;;25.80;59.60;;;;;;4880336;29;46237;-84
2023/08/25 14:32:06;;;;;;;1.23;0.95;;;25.80;59.60;;;;;;4827780;29;45572;-84
2023/08/25 14:34:33;;;;;;;1.20;1.10;;;25.80;59.60;;;;;;4858906;29;45187;-85
2023/08/25 14:36:58;;;;;;;1.40;0.93;;;25.80;59.60;;;;;;4869239;28;45611;-84
2023/08/25 14:39:24;;;;;;;0.88;0.80;;;25.80;59.60;;;;;;4877201;29;45204;-85
2023/08/25 14:41:49;;;;;;;1.95;1.10;;;25.80;59.60;;;;;;4873698;29;45430;-84
2023/08/25 14:44:15;;;;;;;1.00;0.90;;;25.80;59.60;;;;;;4880184;29;44798;-85
2023/08/25 14:46:40;;;;;;;1.48;1.00;;;25.80;59.70;;;;;;4855265;29;45489;-85
2023/08/25 14:49:07;;;;;;;1.40;0.80;;;25.80;59.60;;;;;;4879248;29;46707;-84
2023/08/25 14:51:36;;;;;;;0.95;0.90;;;25.80;59.70;;;;;;4849051;29;45206;-84
2023/08/25 14:54:02;;;;;;;0.82;0.80;;;25.80;59.70;;;;;;4897045;28;44659;-85
2023/08/25 14:56:27;;;;;;;1.17;0.70;;;25.80;59.60;;;;;;4892586;29;45520;-84
2023/08/25 14:58:53;;;;;;;0.88;0.88;;;25.80;59.70;;;;;;4855822;29;46397;-84
2023/08/25 15:01:18;;;;;;;1.20;0.93;;;25.80;59.70;;;;;;4843168;29;45323;-85
2023/08/25 15:03:44;;;;;;;0.90;0.90;;;25.80;59.70;;;;;;4895521;29;45389;-84
2023/08/25 15:06:10;;;;;;;0.85;0.80;;;25.80;59.70;;;;;;4847596;29;45523;-84
2023/08/25 15:08:35;;;;;;;1.33;1.00;;;25.80;59.70;;;;;;4875113;29;45499;-84
2023/08/25 15:11:05;;;;;;;1.27;0.93;;;25.80;59.70;;;;;;4891124;28;45233;-84
2023/08/25 15:13:31;;;;;;;1.00;0.90;;;25.80;59.70;;;;;;4863947;29;45880;-84
2023/08/25 15:15:57;;;;;;;1.00;1.00;;;25.80;59.70;;;;;;4897302;28;44787;-84
2023/08/25 15:18:23;;;;;;;1.20;0.90;;;25.80;59.70;;;;;;4862050;29;47122;-84
2023/08/25 15:21:07;;;;;;;1.17;1.08;;;25.70;59.60;;;;;;4890941;28;45277;-84
2023/08/25 15:23:33;;;;;;;0.70;0.70;;;25.80;59.70;;;;;;4847594;29;45010;-84
2023/08/25 15:25:58;;;;;;;0.70;0.70;;;25.80;59.70;;;;;;4863674;29;45497;-84
2023/08/25 15:28:27;;;;;;;1.00;1.00;;;25.70;59.60;;;;;;4882820;28;46006;-84
2023/08/25 15:31:07;;;;;;;0.85;0.80;;;25.80;59.70;;;;;;4888396;28;45004;-84
2023/08/25 15:33:36;;;;;;;3.50;0.98;;;25.80;59.70;;;;;;4867313;29;45979;-84
2023/08/25 15:36:03;;;;;;;0.90;0.90;;;25.80;59.70;;;;;;4890250;28;45621;-84
2023/08/25 15:38:28;;;;;;;1.35;0.90;;;25.80;59.70;;;;;;4851658;29;47334;-84
2023/08/25 15:40:54;;;;;;;1.00;0.70;;;25.80;59.70;;;;;;4848047;29;45363;-85
2023/08/25 15:43:21;;;;;;;1.20;1.00;;;25.80;59.70;;;;;;4864279;28;45381;-84
2023/08/25 15:45:49;;;;;;;2.45;0.88;;;25.80;59.70;;;;;;4859722;29;45313;-85